sensor_id;sensor_type;location;lat;lon;timestamp;pressure;altitude;pressure_sealevel;temperature
25985;BMP280;66753;53.848;10.658;2023-01-24T00:03:14;103904.03;;;5.17
25985;BMP280;66753;53.848;10.658;2023-01-24T00:08:19;103890.72;;;5.12
25985;BMP280;66753;53.848;10.658;2023-01-24T00:13:20;103898.38;;;5.14
25985;BMP280;66753;53.848;10.658;2023-01-24T00:18:23;103889.50;;;5.15
25985;BMP280;66753;53.848;10.658;2023-01-24T00:23:24;103888.91;;;5.13
25985;BMP280;66753;53.848;10.658;2023-01-24T00:28:24;103883.63;;;5.13
25985;BMP280;66753;53.848;10.658;2023-01-24T00:33:25;103872.31;;;5.12
25985;BMP280;66753;53.848;10.658;2023-01-24T00:38:25;103881.81;;;5.13
25985;BMP280;66753;53.848;10.658;2023-01-24T00:43:28;103868.50;;;5.08
25985;BMP280;66753;53.848;10.658;2023-01-24T00:48:28;103874.75;;;5.07
25985;BMP280;66753;53.848;10.658;2023-01-24T00:53:29;103856.13;;;5.09
25985;BMP280;66753;53.848;10.658;2023-01-24T00:58:32;103865.66;;;5.10
25985;BMP280;66753;53.848;10.658;2023-01-24T01:03:32;103853.50;;;5.09
25985;BMP280;66753;53.848;10.658;2023-01-24T01:08:33;103863.47;;;5.07
25985;BMP280;66753;53.848;10.658;2023-01-24T01:13:35;103857.16;;;5.08
25985;BMP280;66753;53.848;10.658;2023-01-24T01:18:36;103868.72;;;5.07
25985;BMP280;66753;53.848;10.658;2023-01-24T01:23:36;103863.47;;;5.07
25985;BMP280;66753;53.848;10.658;2023-01-24T01:28:40;103867.09;;;5.06
25985;BMP280;66753;53.848;10.658;2023-01-24T01:33:41;103856.56;;;5.06
25985;BMP280;66753;53.848;10.658;2023-01-24T01:38:42;103854.97;;;5.05
25985;BMP280;66753;53.848;10.658;2023-01-24T01:43:42;103854.97;;;5.05
25985;BMP280;66753;53.848;10.658;2023-01-24T01:49:05;103852.56;;;5.03
25985;BMP280;66753;53.848;10.658;2023-01-24T01:54:13;103845.34;;;4.99
25985;BMP280;66753;53.848;10.658;2023-01-24T01:59:19;103841.69;;;5.00
25985;BMP280;66753;53.848;10.658;2023-01-24T02:04:27;103831.97;;;5.00
25985;BMP280;66753;53.848;10.658;2023-01-24T02:09:32;103836.41;;;5.00
25985;BMP280;66753;53.848;10.658;2023-01-24T02:14:34;103841.06;;;4.98
25985;BMP280;66753;53.848;10.658;2023-01-24T02:25:18;103830.81;;;4.90
25985;BMP280;66753;53.848;10.658;2023-01-24T02:30:19;103838.91;;;4.88
25985;BMP280;66753;53.848;10.658;2023-01-24T02:40:24;103847.63;;;4.89
25985;BMP280;66753;53.848;10.658;2023-01-24T02:45:27;103850.03;;;4.90
25985;BMP280;66753;53.848;10.658;2023-01-24T02:50:31;103850.25;;;4.89
25985;BMP280;66753;53.848;10.658;2023-01-24T02:55:54;103850.47;;;4.87
25985;BMP280;66753;53.848;10.658;2023-01-24T03:01:18;103854.34;;;4.85
25985;BMP280;66753;53.848;10.658;2023-01-24T03:06:18;103859.16;;;4.88
25985;BMP280;66753;53.848;10.658;2023-01-24T03:11:19;103859.94;;;4.88
25985;BMP280;66753;53.848;10.658;2023-01-24T03:16:20;103869.69;;;4.88
25985;BMP280;66753;53.848;10.658;2023-01-24T03:21:39;103865.66;;;4.85
25985;BMP280;66753;53.848;10.658;2023-01-24T03:26:58;103864.47;;;4.81
25985;BMP280;66753;53.848;10.658;2023-01-24T03:32:16;103852.16;;;4.75
25985;BMP280;66753;53.848;10.658;2023-01-24T03:37:35;103858.03;;;4.77
25985;BMP280;66753;53.848;10.658;2023-01-24T03:42:55;103848.09;;;4.79
25985;BMP280;66753;53.848;10.658;2023-01-24T03:48:01;103853.97;;;4.81
25985;BMP280;66753;53.848;10.658;2023-01-24T03:53:05;103855.19;;;4.79
25985;BMP280;66753;53.848;10.658;2023-01-24T03:58:07;103860.00;;;4.82
25985;BMP280;66753;53.848;10.658;2023-01-24T04:03:07;103855.41;;;4.77
25985;BMP280;66753;53.848;10.658;2023-01-24T04:08:08;103862.16;;;4.67
25985;BMP280;66753;53.848;10.658;2023-01-24T04:13:12;103863.09;;;4.72
25985;BMP280;66753;53.848;10.658;2023-01-24T04:18:15;103857.63;;;4.74
25985;BMP280;66753;53.848;10.658;2023-01-24T04:23:16;103862.88;;;4.74
25985;BMP280;66753;53.848;10.658;2023-01-24T04:28:16;103846.34;;;4.73
25985;BMP280;66753;53.848;10.658;2023-01-24T04:33:17;103852.56;;;4.79
25985;BMP280;66753;53.848;10.658;2023-01-24T04:38:17;103859.59;;;4.85
25985;BMP280;66753;53.848;10.658;2023-01-24T04:43:17;103862.78;;;4.87
25985;BMP280;66753;53.848;10.658;2023-01-24T04:48:18;103857.78;;;4.85
25985;BMP280;66753;53.848;10.658;2023-01-24T04:53:18;103854.34;;;4.85
25985;BMP280;66753;53.848;10.658;2023-01-24T04:58:19;103856.97;;;4.85
25985;BMP280;66753;53.848;10.658;2023-01-24T05:03:19;103859.00;;;4.83
25985;BMP280;66753;53.848;10.658;2023-01-24T05:08:20;103844.69;;;4.72
25985;BMP280;66753;53.848;10.658;2023-01-24T05:13:20;103850.03;;;4.66
25985;BMP280;66753;53.848;10.658;2023-01-24T05:18:21;103861.72;;;4.70
25985;BMP280;66753;53.848;10.658;2023-01-24T05:23:21;103854.78;;;4.75
25985;BMP280;66753;53.848;10.658;2023-01-24T05:28:22;103851.75;;;4.78
25985;BMP280;66753;53.848;10.658;2023-01-24T05:33:22;103867.31;;;4.80
25985;BMP280;66753;53.848;10.658;2023-01-24T05:38:23;103862.44;;;4.83
25985;BMP280;66753;53.848;10.658;2023-01-24T05:43:23;103863.25;;;4.84
25985;BMP280;66753;53.848;10.658;2023-01-24T05:48:24;103858.19;;;4.82
25985;BMP280;66753;53.848;10.658;2023-01-24T05:53:25;103860.63;;;4.84
25985;BMP280;66753;53.848;10.658;2023-01-24T05:58:27;103850.75;;;4.79
25985;BMP280;66753;53.848;10.658;2023-01-24T06:03:28;103852.34;;;4.80
25985;BMP280;66753;53.848;10.658;2023-01-24T06:08:28;103854.59;;;4.77
25985;BMP280;66753;53.848;10.658;2023-01-24T06:13:29;103859.66;;;4.78
25985;BMP280;66753;53.848;10.658;2023-01-24T06:18:29;103855.78;;;4.81
25985;BMP280;66753;53.848;10.658;2023-01-24T06:23:30;103859.00;;;4.83
25985;BMP280;66753;53.848;10.658;2023-01-24T06:28:31;103861.66;;;4.83
25985;BMP280;66753;53.848;10.658;2023-01-24T06:33:43;103860.00;;;4.82
25985;BMP280;66753;53.848;10.658;2023-01-24T06:38:49;103874.19;;;4.81
25985;BMP280;66753;53.848;10.658;2023-01-24T06:43:49;103873.38;;;4.80
25985;BMP280;66753;53.848;10.658;2023-01-24T06:48:50;103871.75;;;4.79
25985;BMP280;66753;53.848;10.658;2023-01-24T06:53:50;103872.59;;;4.80
25985;BMP280;66753;53.848;10.658;2023-01-24T06:58:51;103886.72;;;4.79
25985;BMP280;66753;53.848;10.658;2023-01-24T07:03:52;103884.91;;;4.79
25985;BMP280;66753;53.848;10.658;2023-01-24T07:08:52;103878.63;;;4.80
25985;BMP280;66753;53.848;10.658;2023-01-24T07:13:53;103886.28;;;4.82
25985;BMP280;66753;53.848;10.658;2023-01-24T07:18:53;103897.19;;;4.85
25985;BMP280;66753;53.848;10.658;2023-01-24T07:23:56;103904.28;;;4.85
25985;BMP280;66753;53.848;10.658;2023-01-24T07:28:57;103914.59;;;4.86
25985;BMP280;66753;53.848;10.658;2023-01-24T07:33:58;103907.47;;;4.87
25985;BMP280;66753;53.848;10.658;2023-01-24T07:38:58;103915.97;;;4.89
25985;BMP280;66753;53.848;10.658;2023-01-24T07:43:58;103921.00;;;4.90
25985;BMP280;66753;53.848;10.658;2023-01-24T07:48:59;103926.25;;;4.90
25985;BMP280;66753;53.848;10.658;2023-01-24T07:53:59;103923.00;;;4.95
25985;BMP280;66753;53.848;10.658;2023-01-24T07:59:02;103920.97;;;4.97
25985;BMP280;66753;53.848;10.658;2023-01-24T08:04:03;103924.63;;;4.96
25985;BMP280;66753;53.848;10.658;2023-01-24T08:09:03;103918.34;;;4.97
25985;BMP280;66753;53.848;10.658;2023-01-24T08:14:04;103931.09;;;4.93
25985;BMP280;66753;53.848;10.658;2023-01-24T08:19:04;103924.44;;;4.97
25985;BMP280;66753;53.848;10.658;2023-01-24T08:24:05;103925.59;;;5.01
25985;BMP280;66753;53.848;10.658;2023-01-24T08:29:06;103938.91;;;5.06
25985;BMP280;66753;53.848;10.658;2023-01-24T08:34:06;103932.59;;;5.07
25985;BMP280;66753;53.848;10.658;2023-01-24T08:39:06;103931.97;;;5.12
25985;BMP280;66753;53.848;10.658;2023-01-24T08:44:07;103941.00;;;5.22
25985;BMP280;66753;53.848;10.658;2023-01-24T08:49:11;103935.00;;;5.15
25985;BMP280;66753;53.848;10.658;2023-01-24T08:54:14;103940.88;;;5.11
25985;BMP280;66753;53.848;10.658;2023-01-24T08:59:15;103941.50;;;5.13
25985;BMP280;66753;53.848;10.658;2023-01-24T09:04:15;103954.75;;;5.24
25985;BMP280;66753;53.848;10.658;2023-01-24T09:09:16;103941.47;;;5.19
25985;BMP280;66753;53.848;10.658;2023-01-24T09:14:16;103941.88;;;5.16
25985;BMP280;66753;53.848;10.658;2023-01-24T09:19:17;103945.84;;;5.25
25985;BMP280;66753;53.848;10.658;2023-01-24T09:24:18;103943.75;;;5.34
25985;BMP280;66753;53.848;10.658;2023-01-24T09:29:18;103945.38;;;5.35
25985;BMP280;66753;53.848;10.658;2023-01-24T09:34:19;103938.50;;;5.34
25985;BMP280;66753;53.848;10.658;2023-01-24T09:39:19;103949.75;;;5.41
25985;BMP280;66753;53.848;10.658;2023-01-24T09:44:30;103948.88;;;5.47
25985;BMP280;66753;53.848;10.658;2023-01-24T09:49:37;103944.97;;;5.56
25985;BMP280;66753;53.848;10.658;2023-01-24T09:54:55;103945.13;;;5.61
25985;BMP280;66753;53.848;10.658;2023-01-24T10:00:04;103939.88;;;5.61
25985;BMP280;66753;53.848;10.658;2023-01-24T10:05:14;103943.50;;;5.60
25985;BMP280;66753;53.848;10.658;2023-01-24T10:10:32;103937.13;;;5.67
25985;BMP280;66753;53.848;10.658;2023-01-24T10:15:45;103930.72;;;5.82
25985;BMP280;66753;53.848;10.658;2023-01-24T10:21:25;103927.28;;;5.99
25985;BMP280;66753;53.848;10.658;2023-01-24T10:26:37;103921.41;;;6.15
25985;BMP280;66753;53.848;10.658;2023-01-24T10:31:46;103918.03;;;6.26
25985;BMP280;66753;53.848;10.658;2023-01-24T10:42:22;103912.66;;;6.03
25985;BMP280;66753;53.848;10.658;2023-01-24T10:52:45;103908.63;;;6.01
25985;BMP280;66753;53.848;10.658;2023-01-24T10:57:49;103907.53;;;6.08
25985;BMP280;66753;53.848;10.658;2023-01-24T11:02:53;103893.06;;;6.11
25985;BMP280;66753;53.848;10.658;2023-01-24T11:07:58;103894.88;;;6.17
25985;BMP280;66753;53.848;10.658;2023-01-24T11:13:00;103894.09;;;6.28
25985;BMP280;66753;53.848;10.658;2023-01-24T11:23:18;103898.03;;;6.37
25985;BMP280;66753;53.848;10.658;2023-01-24T11:38:42;103898.38;;;6.40
25985;BMP280;66753;53.848;10.658;2023-01-24T11:59:24;103865.34;;;6.26
25985;BMP280;66753;53.848;10.658;2023-01-24T12:09:54;103859.25;;;6.26
25985;BMP280;66753;53.848;10.658;2023-01-24T12:20:17;103866.97;;;6.50
25985;BMP280;66753;53.848;10.658;2023-01-24T12:25:27;103858.78;;;6.58
25985;BMP280;66753;53.848;10.658;2023-01-24T12:30:43;103856.72;;;6.60
25985;BMP280;66753;53.848;10.658;2023-01-24T12:35:48;103840.31;;;6.58
25985;BMP280;66753;53.848;10.658;2023-01-24T12:46:15;103822.69;;;6.59
25985;BMP280;66753;53.848;10.658;2023-01-24T12:51:26;103822.69;;;6.59
25985;BMP280;66753;53.848;10.658;2023-01-24T13:02:27;103819.09;;;6.53
25985;BMP280;66753;53.848;10.658;2023-01-24T13:12:55;103824.13;;;6.43
25985;BMP280;66753;53.848;10.658;2023-01-24T13:33:17;103824.47;;;6.35
25985;BMP280;66753;53.848;10.658;2023-01-24T13:38:22;103819.22;;;6.35
25985;BMP280;66753;53.848;10.658;2023-01-24T13:48:55;103800.16;;;6.22
25985;BMP280;66753;53.848;10.658;2023-01-24T13:54:17;103801.78;;;6.23
25985;BMP280;66753;53.848;10.658;2023-01-24T13:59:18;103800.97;;;6.22
25985;BMP280;66753;53.848;10.658;2023-01-24T14:04:40;103800.97;;;6.22
25985;BMP280;66753;53.848;10.658;2023-01-24T14:09:41;103799.81;;;6.18
25985;BMP280;66753;53.848;10.658;2023-01-24T14:19:58;103799.53;;;6.08
25985;BMP280;66753;53.848;10.658;2023-01-24T14:25:25;103802.03;;;6.03
25985;BMP280;66753;53.848;10.658;2023-01-24T14:30:49;103791.81;;;5.95
25985;BMP280;66753;53.848;10.658;2023-01-24T14:36:13;103798.31;;;5.81
25985;BMP280;66753;53.848;10.658;2023-01-24T14:41:22;103789.22;;;5.77
25985;BMP280;66753;53.848;10.658;2023-01-24T14:46:23;103800.19;;;5.74
25985;BMP280;66753;53.848;10.658;2023-01-24T14:51:24;103794.34;;;5.72
25985;BMP280;66753;53.848;10.658;2023-01-24T14:56:24;103796.41;;;5.70
25985;BMP280;66753;53.848;10.658;2023-01-24T15:01:30;103780.47;;;5.65
25985;BMP280;66753;53.848;10.658;2023-01-24T15:06:33;103775.72;;;5.55
25985;BMP280;66753;53.848;10.658;2023-01-24T15:11:35;103791.59;;;5.49
25985;BMP280;66753;53.848;10.658;2023-01-24T15:16:38;103784.16;;;5.46
25985;BMP280;66753;53.848;10.658;2023-01-24T15:21:44;103778.72;;;5.41
25985;BMP280;66753;53.848;10.658;2023-01-24T15:26:45;103771.75;;;5.35
25985;BMP280;66753;53.848;10.658;2023-01-24T15:31:48;103764.56;;;5.24
25985;BMP280;66753;53.848;10.658;2023-01-24T15:37:00;103769.22;;;5.22
25985;BMP280;66753;53.848;10.658;2023-01-24T15:42:05;103783.06;;;5.17
25985;BMP280;66753;53.848;10.658;2023-01-24T15:47:24;103782.06;;;5.12
25985;BMP280;66753;53.848;10.658;2023-01-24T15:53:21;103788.66;;;5.03
25985;BMP280;66753;53.848;10.658;2023-01-24T15:58:22;103769.31;;;4.97
25985;BMP280;66753;53.848;10.658;2023-01-24T16:03:23;103780.59;;;4.98
25985;BMP280;66753;53.848;10.658;2023-01-24T16:08:24;103771.72;;;4.99
25985;BMP280;66753;53.848;10.658;2023-01-24T16:13:31;103776.38;;;4.97
25985;BMP280;66753;53.848;10.658;2023-01-24T16:18:33;103770.13;;;4.91
25985;BMP280;66753;53.848;10.658;2023-01-24T16:23:33;103765.38;;;4.82
25985;BMP280;66753;53.848;10.658;2023-01-24T16:28:34;103765.81;;;4.79
25985;BMP280;66753;53.848;10.658;2023-01-24T16:33:34;103758.66;;;4.68
25985;BMP280;66753;53.848;10.658;2023-01-24T16:38:35;103757.13;;;4.54
25985;BMP280;66753;53.848;10.658;2023-01-24T16:43:35;103757.91;;;4.61
25985;BMP280;66753;53.848;10.658;2023-01-24T16:48:36;103754.66;;;4.65
25985;BMP280;66753;53.848;10.658;2023-01-24T16:53:36;103745.25;;;4.51
25985;BMP280;66753;53.848;10.658;2023-01-24T16:58:37;103747.06;;;4.51
25985;BMP280;66753;53.848;10.658;2023-01-24T17:03:37;103760.03;;;4.46
25985;BMP280;66753;53.848;10.658;2023-01-24T17:08:38;103752.91;;;4.28
25985;BMP280;66753;53.848;10.658;2023-01-24T17:13:38;103758.59;;;4.19
25985;BMP280;66753;53.848;10.658;2023-01-24T17:18:39;103751.53;;;4.19
25985;BMP280;66753;53.848;10.658;2023-01-24T17:23:43;103759.81;;;4.23
25985;BMP280;66753;53.848;10.658;2023-01-24T17:28:44;103752.59;;;4.12
25985;BMP280;66753;53.848;10.658;2023-01-24T17:33:45;103746.97;;;4.08
25985;BMP280;66753;53.848;10.658;2023-01-24T17:38:46;103742.84;;;4.19
25985;BMP280;66753;53.848;10.658;2023-01-24T17:43:48;103759.97;;;4.28
25985;BMP280;66753;53.848;10.658;2023-01-24T17:48:49;103751.31;;;4.21
25985;BMP280;66753;53.848;10.658;2023-01-24T17:53:52;103746.31;;;4.13
25985;BMP280;66753;53.848;10.658;2023-01-24T17:58:55;103744.56;;;4.07
25985;BMP280;66753;53.848;10.658;2023-01-24T18:03:59;103750.53;;;4.14
25985;BMP280;66753;53.848;10.658;2023-01-24T18:08:59;103764.50;;;4.14
25985;BMP280;66753;53.848;10.658;2023-01-24T18:14:00;103758.19;;;4.22
25985;BMP280;66753;53.848;10.658;2023-01-24T18:19:00;103750.13;;;4.17
25985;BMP280;66753;53.848;10.658;2023-01-24T18:24:01;103743.66;;;4.19
25985;BMP280;66753;53.848;10.658;2023-01-24T18:29:02;103745.91;;;4.16
25985;BMP280;66753;53.848;10.658;2023-01-24T18:34:02;103749.75;;;4.13
25985;BMP280;66753;53.848;10.658;2023-01-24T18:39:06;103746.94;;;4.15
25985;BMP280;66753;53.848;10.658;2023-01-24T18:44:10;103740.91;;;4.08
25985;BMP280;66753;53.848;10.658;2023-01-24T18:49:11;103751.41;;;4.08
25985;BMP280;66753;53.848;10.658;2023-01-24T18:54:12;103755.66;;;4.09
25985;BMP280;66753;53.848;10.658;2023-01-24T18:59:12;103752.44;;;4.07
25985;BMP280;66753;53.848;10.658;2023-01-24T19:04:13;103753.25;;;4.01
25985;BMP280;66753;53.848;10.658;2023-01-24T19:09:13;103745.03;;;3.91
25985;BMP280;66753;53.848;10.658;2023-01-24T19:14:14;103735.16;;;3.93
25985;BMP280;66753;53.848;10.658;2023-01-24T19:19:16;103737.16;;;3.91
25985;BMP280;66753;53.848;10.658;2023-01-24T19:24:25;103736.53;;;3.95
25985;BMP280;66753;53.848;10.658;2023-01-24T19:29:26;103741.38;;;3.98
25985;BMP280;66753;53.848;10.658;2023-01-24T19:34:28;103753.47;;;3.99
25985;BMP280;66753;53.848;10.658;2023-01-24T19:39:29;103754.75;;;3.90
25985;BMP280;66753;53.848;10.658;2023-01-24T19:44:29;103756.97;;;3.87
25985;BMP280;66753;53.848;10.658;2023-01-24T19:49:29;103757.41;;;3.84
25985;BMP280;66753;53.848;10.658;2023-01-24T19:54:30;103749.09;;;3.87
25985;BMP280;66753;53.848;10.658;2023-01-24T19:59:33;103751.53;;;3.82
25985;BMP280;66753;53.848;10.658;2023-01-24T20:04:33;103747.53;;;3.73
25985;BMP280;66753;53.848;10.658;2023-01-24T20:09:34;103755.41;;;3.73
25985;BMP280;66753;53.848;10.658;2023-01-24T20:14:34;103762.88;;;3.69
25985;BMP280;66753;53.848;10.658;2023-01-24T20:19:35;103776.59;;;3.71
25985;BMP280;66753;53.848;10.658;2023-01-24T20:24:35;103773.78;;;3.73
25985;BMP280;66753;53.848;10.658;2023-01-24T20:29:39;103767.91;;;3.71
25985;BMP280;66753;53.848;10.658;2023-01-24T20:34:39;103770.44;;;3.53
25985;BMP280;66753;53.848;10.658;2023-01-24T20:39:44;103770.84;;;3.49
25985;BMP280;66753;53.848;10.658;2023-01-24T20:44:45;103776.34;;;3.41
25985;BMP280;66753;53.848;10.658;2023-01-24T20:49:49;103779.16;;;3.40
25985;BMP280;66753;53.848;10.658;2023-01-24T20:54:50;103774.50;;;3.35
25985;BMP280;66753;53.848;10.658;2023-01-24T20:59:50;103776.97;;;3.30
25985;BMP280;66753;53.848;10.658;2023-01-24T21:04:51;103766.84;;;3.34
25985;BMP280;66753;53.848;10.658;2023-01-24T21:09:51;103764.63;;;3.37
25985;BMP280;66753;53.848;10.658;2023-01-24T21:14:52;103761.81;;;3.39
25985;BMP280;66753;53.848;10.658;2023-01-24T21:19:52;103756.19;;;3.22
25985;BMP280;66753;53.848;10.658;2023-01-24T21:24:53;103754.22;;;3.18
25985;BMP280;66753;53.848;10.658;2023-01-24T21:29:53;103759.00;;;3.27
25985;BMP280;66753;53.848;10.658;2023-01-24T21:34:53;103763.84;;;3.30
25985;BMP280;66753;53.848;10.658;2023-01-24T21:39:54;103759.78;;;3.34
25985;BMP280;66753;53.848;10.658;2023-01-24T21:44:54;103750.94;;;3.29
25985;BMP280;66753;53.848;10.658;2023-01-24T21:49:55;103750.91;;;3.35
25985;BMP280;66753;53.848;10.658;2023-01-24T21:54:55;103758.31;;;3.51
25985;BMP280;66753;53.848;10.658;2023-01-24T21:59:57;103743.41;;;3.52
25985;BMP280;66753;53.848;10.658;2023-01-24T22:04:58;103736.91;;;3.54
25985;BMP280;66753;53.848;10.658;2023-01-24T22:09:59;103739.94;;;3.51
25985;BMP280;66753;53.848;10.658;2023-01-24T22:15:00;103736.56;;;3.44
25985;BMP280;66753;53.848;10.658;2023-01-24T22:20:01;103721.84;;;3.43
25985;BMP280;66753;53.848;10.658;2023-01-24T22:30:26;103710.59;;;3.23
25985;BMP280;66753;53.848;10.658;2023-01-24T22:35:27;103712.19;;;3.24
25985;BMP280;66753;53.848;10.658;2023-01-24T22:40:28;103718.66;;;3.28
25985;BMP280;66753;53.848;10.658;2023-01-24T22:45:29;103703.56;;;3.24
25985;BMP280;66753;53.848;10.658;2023-01-24T22:50:29;103710.59;;;3.23
25985;BMP280;66753;53.848;10.658;2023-01-24T22:55:33;103709.56;;;3.31
25985;BMP280;66753;53.848;10.658;2023-01-24T23:00:33;103712.59;;;3.34
25985;BMP280;66753;53.848;10.658;2023-01-24T23:05:33;103701.88;;;3.42
25985;BMP280;66753;53.848;10.658;2023-01-24T23:10:34;103686.72;;;3.44
25985;BMP280;66753;53.848;10.658;2023-01-24T23:15:34;103667.81;;;3.42
25985;BMP280;66753;53.848;10.658;2023-01-24T23:20:53;103652.50;;;3.33
25985;BMP280;66753;53.848;10.658;2023-01-24T23:26:12;103645.47;;;3.20
25985;BMP280;66753;53.848;10.658;2023-01-24T23:31:15;103620.28;;;3.19
25985;BMP280;66753;53.848;10.658;2023-01-24T23:36:15;103616.91;;;3.12
25985;BMP280;66753;53.848;10.658;2023-01-24T23:41:16;103606.66;;;3.04
25985;BMP280;66753;53.848;10.658;2023-01-24T23:46:16;103597.00;;;2.98
25985;BMP280;66753;53.848;10.658;2023-01-24T23:51:17;103597.00;;;2.98
25985;BMP280;66753;53.848;10.658;2023-01-24T23:56:17;103606.84;;;3.03
